createdAt,value
2019-02-26T00:01:14.433Z,8.20
2019-02-26T00:04:04.898Z,8.10
2019-02-26T00:06:54.012Z,8.10
2019-02-26T00:09:42.973Z,7.90
2019-02-26T00:12:31.480Z,7.90
2019-02-26T00:15:20.648Z,7.80
2019-02-26T00:18:11.515Z,7.80
2019-02-26T00:21:00.693Z,7.70
2019-02-26T00:23:49.209Z,7.80
2019-02-26T00:26:40.699Z,7.80
2019-02-26T00:29:29.743Z,7.70
2019-02-26T00:32:18.495Z,7.60
2019-02-26T00:35:07.537Z,7.60
2019-02-26T00:37:55.863Z,7.60
2019-02-26T00:40:43.988Z,7.50
2019-02-26T00:43:32.910Z,7.50
2019-02-26T00:46:24.086Z,7.40
2019-02-26T00:49:11.906Z,7.40
2019-02-26T00:52:00.589Z,7.30
2019-02-26T00:54:50.937Z,7.40
2019-02-26T00:57:40.477Z,7.30
2019-02-26T01:00:30.389Z,7.40
2019-02-26T01:03:18.081Z,7.30
2019-02-26T01:06:07.900Z,7.30
2019-02-26T01:08:56.484Z,7.20
2019-02-26T01:11:45.179Z,7.10
2019-02-26T01:14:34.451Z,7.00
2019-02-26T01:17:22.914Z,7.00
2019-02-26T01:20:13.136Z,7.00
2019-02-26T01:23:01.423Z,7.00
2019-02-26T01:25:49.498Z,6.90
2019-02-26T01:28:39.699Z,6.90
2019-02-26T01:31:29.241Z,6.90
2019-02-26T01:34:20.363Z,7.00
2019-02-26T01:37:10.339Z,7.00
2019-02-26T01:39:58.758Z,7.00
2019-02-26T01:42:51.930Z,7.30
2019-02-26T01:45:37.838Z,7.30
2019-02-26T01:48:25.839Z,7.30
2019-02-26T01:51:13.670Z,7.40
2019-02-26T01:54:01.981Z,7.40
2019-02-26T01:56:50.910Z,7.30
2019-02-26T01:59:39.417Z,7.20
2019-02-26T02:02:28.251Z,7.10
2019-02-26T02:05:19.084Z,7.20
2019-02-26T02:08:09.029Z,7.10
2019-02-26T02:10:58.948Z,7.00
2019-02-26T02:13:46.667Z,7.00
2019-02-26T02:16:35.124Z,6.90
2019-02-26T02:19:25.692Z,6.90
2019-02-26T02:22:14.645Z,7.00
2019-02-26T02:25:03.697Z,7.10
2019-02-26T02:27:54.465Z,7.20
2019-02-26T02:30:41.727Z,7.10
2019-02-26T02:33:32.115Z,7.10
2019-02-26T02:36:23.017Z,7.00
2019-02-26T02:39:15.474Z,6.90
2019-02-26T02:42:00.194Z,6.90
2019-02-26T02:44:49.398Z,6.90
2019-02-26T02:47:38.796Z,6.90
2019-02-26T02:50:27.362Z,6.90
2019-02-26T02:53:20.461Z,6.90
2019-02-26T02:56:06.383Z,7.00
2019-02-26T02:58:55.314Z,6.90
2019-02-26T03:01:45.625Z,6.90
2019-02-26T03:04:34.705Z,6.70
2019-02-26T03:07:24.340Z,6.80
2019-02-26T03:10:14.390Z,6.80
2019-02-26T03:13:02.994Z,6.70
2019-02-26T03:15:53.572Z,6.70
2019-02-26T03:18:41.429Z,6.60
2019-02-26T03:21:30.654Z,6.50
2019-02-26T03:24:19.383Z,6.40
2019-02-26T03:27:07.462Z,6.40
2019-02-26T03:29:56.264Z,6.40
2019-02-26T03:32:47.261Z,6.30
2019-02-26T03:35:35.212Z,6.30
2019-02-26T03:38:24.397Z,6.30
2019-02-26T03:41:13.546Z,6.30
2019-02-26T03:44:03.264Z,6.40
2019-02-26T03:46:51.016Z,6.30
2019-02-26T03:49:41.759Z,6.40
2019-02-26T03:52:32.990Z,6.30
2019-02-26T03:55:21.167Z,6.20
2019-02-26T03:58:09.397Z,6.30
2019-02-26T04:01:01.745Z,6.40
2019-02-26T04:03:47.337Z,6.30
2019-02-26T04:06:38.410Z,6.20
2019-02-26T04:09:26.287Z,6.30
2019-02-26T04:12:15.385Z,6.30
2019-02-26T04:15:04.992Z,6.30
2019-02-26T04:17:53.150Z,6.30
2019-02-26T04:20:44.355Z,6.40
2019-02-26T04:23:30.715Z,6.40
2019-02-26T04:27:02.605Z,6.40
2019-02-26T04:30:24.098Z,6.40
2019-02-26T04:33:41.418Z,6.10
2019-02-26T04:37:14.912Z,6.00
2019-02-26T04:40:38.936Z,6.00
2019-02-26T04:44:01.240Z,5.90
2019-02-26T04:47:12.363Z,5.90
2019-02-26T04:50:03.910Z,6.00
2019-02-26T04:52:51.483Z,6.00
2019-02-26T04:55:41.472Z,6.00
2019-02-26T04:58:29.274Z,6.00
2019-02-26T05:01:19.168Z,6.10
2019-02-26T05:04:08.390Z,6.20
2019-02-26T05:06:56.654Z,6.30
2019-02-26T05:09:44.814Z,6.20
2019-02-26T05:12:34.945Z,6.30
2019-02-26T05:15:26.391Z,6.40
2019-02-26T05:18:13.448Z,6.30
2019-02-26T05:21:04.227Z,6.40
2019-02-26T05:23:52.461Z,6.30
2019-02-26T05:26:41.426Z,6.30
2019-02-26T05:29:29.101Z,6.20
2019-02-26T05:32:17.184Z,6.30
2019-02-26T05:35:05.914Z,6.20
2019-02-26T05:37:56.205Z,6.30
2019-02-26T05:40:45.194Z,6.20
2019-02-26T05:43:33.981Z,6.10
2019-02-26T05:46:24.941Z,6.10
2019-02-26T05:49:15.758Z,6.20
2019-02-26T05:52:04.016Z,6.10
2019-02-26T05:54:52.732Z,6.00
2019-02-26T05:57:41.052Z,5.90
2019-02-26T06:00:33.149Z,5.90
2019-02-26T06:03:19.444Z,5.80
2019-02-26T06:06:07.934Z,5.80
2019-02-26T06:08:57.989Z,5.90
2019-02-26T06:11:49.820Z,6.00
2019-02-26T06:14:37.219Z,6.00
2019-02-26T06:17:26.226Z,5.90
2019-02-26T06:20:18.636Z,6.00
2019-02-26T06:23:08.075Z,6.00
2019-02-26T06:25:59.016Z,6.10
2019-02-26T06:28:52.730Z,6.20
2019-02-26T06:31:42.297Z,6.20
2019-02-26T06:34:30.063Z,6.10
2019-02-26T06:37:20.492Z,6.10
2019-02-26T06:40:09.986Z,6.00
2019-02-26T06:42:57.851Z,5.90
2019-02-26T06:45:47.749Z,5.90
2019-02-26T06:48:35.581Z,6.10
2019-02-26T06:51:25.797Z,6.20
2019-02-26T06:54:15.377Z,6.20
2019-02-26T06:57:03.563Z,6.30
2019-02-26T06:59:55.146Z,6.40
2019-02-26T07:02:45.465Z,6.50
2019-02-26T07:05:31.959Z,6.70
2019-02-26T07:08:21.968Z,6.70
2019-02-26T07:11:09.167Z,6.90
2019-02-26T07:13:58.832Z,7.00
2019-02-26T07:16:46.714Z,7.20
2019-02-26T07:19:35.791Z,7.40
2019-02-26T07:22:24.470Z,7.60
2019-02-26T07:25:13.870Z,7.70
2019-02-26T07:28:02.902Z,7.80
2019-02-26T07:30:51.313Z,8.00
2019-02-26T07:33:39.932Z,8.10
2019-02-26T07:36:28.603Z,8.30
2019-02-26T07:39:18.222Z,8.30
2019-02-26T07:42:07.440Z,8.20
2019-02-26T07:44:56.359Z,8.20
2019-02-26T07:47:45.380Z,8.20
2019-02-26T07:50:37.526Z,8.10
2019-02-26T07:53:24.622Z,8.40
2019-02-26T07:56:12.863Z,8.50
2019-02-26T07:59:02.073Z,8.60
2019-02-26T08:01:51.038Z,8.70
2019-02-26T08:04:41.320Z,8.80
2019-02-26T08:07:30.730Z,8.70
2019-02-26T08:10:19.502Z,8.80
2019-02-26T08:13:08.353Z,9.10
2019-02-26T08:15:58.200Z,9.30
2019-02-26T08:18:47.398Z,9.50
2019-02-26T08:21:36.150Z,9.60
2019-02-26T08:24:24.678Z,9.60
2019-02-26T08:27:13.633Z,9.50
2019-02-26T08:30:01.392Z,9.40
2019-02-26T08:32:53.416Z,9.60
2019-02-26T08:35:40.386Z,9.90
2019-02-26T08:38:30.047Z,10.40
2019-02-26T08:41:18.658Z,10.90
2019-02-26T08:44:07.320Z,11.10
2019-02-26T08:46:55.216Z,11.20
2019-02-26T08:49:45.160Z,11.70
2019-02-26T08:52:34.767Z,12.20
2019-02-26T08:55:24.543Z,12.70
2019-02-26T08:58:13.608Z,12.70
2019-02-26T09:01:01.426Z,12.80
2019-02-26T09:03:50.781Z,12.70
2019-02-26T09:06:39.326Z,12.80
2019-02-26T09:09:27.712Z,12.80
2019-02-26T09:12:17.604Z,12.80
2019-02-26T09:15:08.112Z,12.90
2019-02-26T09:17:56.319Z,13.00
2019-02-26T09:20:43.890Z,13.30
2019-02-26T09:23:32.874Z,13.70
2019-02-26T09:26:21.530Z,14.00
2019-02-26T09:29:10.327Z,14.20
2019-02-26T09:31:59.346Z,14.00
2019-02-26T09:34:47.806Z,13.80
2019-02-26T09:37:35.862Z,14.10
2019-02-26T09:40:26.521Z,14.40
2019-02-26T09:43:17.293Z,14.60
2019-02-26T09:46:06.208Z,14.80
2019-02-26T09:48:53.715Z,15.10
2019-02-26T09:51:42.029Z,15.50
2019-02-26T09:54:30.390Z,15.70
2019-02-26T09:57:20.441Z,16.00
2019-02-26T10:00:14.664Z,16.00
2019-02-26T10:03:07.455Z,16.10
2019-02-26T10:05:55.887Z,16.10
2019-02-26T10:08:43.909Z,16.10
2019-02-26T10:11:32.895Z,16.10
2019-02-26T10:14:21.737Z,16.20
2019-02-26T10:17:11.637Z,16.40
2019-02-26T10:19:59.723Z,16.50
2019-02-26T10:22:48.850Z,16.70
2019-02-26T10:25:38.671Z,16.80
2019-02-26T10:28:27.277Z,16.80
2019-02-26T10:31:15.134Z,16.90
2019-02-26T10:34:07.929Z,17.10
2019-02-26T10:36:53.043Z,17.30
2019-02-26T10:39:42.230Z,17.30
2019-02-26T10:42:39.455Z,17.50
2019-02-26T10:45:23.496Z,18.10
2019-02-26T10:48:13.174Z,18.60
2019-02-26T10:51:05.984Z,18.80
2019-02-26T10:53:51.352Z,18.60
2019-02-26T10:56:42.078Z,18.60
2019-02-26T10:59:28.956Z,18.70
2019-02-26T11:02:20.155Z,19.20
2019-02-26T11:05:08.741Z,19.70
2019-02-26T11:07:59.810Z,19.90
2019-02-26T11:10:49.681Z,19.90
2019-02-26T11:13:40.714Z,19.70
2019-02-26T11:16:28.872Z,20.10
2019-02-26T11:19:18.006Z,20.10
2019-02-26T11:22:06.164Z,20.70
2019-02-26T11:24:56.120Z,21.30
2019-02-26T11:27:45.976Z,22.60
2019-02-26T11:30:34.019Z,23.50
2019-02-26T11:33:22.045Z,24.10
2019-02-26T11:36:13.117Z,23.70
2019-02-26T11:39:02.285Z,23.30
2019-02-26T11:41:51.394Z,24.50
2019-02-26T11:44:39.782Z,25.60
2019-02-26T11:47:27.687Z,26.80
2019-02-26T11:50:17.159Z,28.10
2019-02-26T11:53:05.106Z,28.70
2019-02-26T11:55:55.106Z,28.40
2019-02-26T11:58:43.403Z,28.60
2019-02-26T12:01:32.209Z,28.20
2019-02-26T12:04:21.954Z,28.40
2019-02-26T12:07:09.984Z,28.30
2019-02-26T12:10:01.541Z,27.50
2019-02-26T12:12:48.407Z,27.40
2019-02-26T12:18:31.374Z,27.10
2019-02-26T12:21:19.574Z,27.50
2019-02-26T12:24:09.243Z,27.20
2019-02-26T12:26:57.528Z,27.60
2019-02-26T12:29:48.285Z,27.50
2019-02-26T12:32:35.062Z,27.20
2019-02-26T12:35:23.671Z,26.70
2019-02-26T12:38:18.034Z,26.50
2019-02-26T12:41:01.761Z,26.20
2019-02-26T12:43:50.153Z,26.20
2019-02-26T12:46:38.250Z,25.80
2019-02-26T12:49:26.358Z,25.80
2019-02-26T12:52:15.180Z,26.40
2019-02-26T12:55:08.001Z,26.10
2019-02-26T12:57:56.501Z,26.00
2019-02-26T13:00:44.373Z,25.90
2019-02-26T13:03:35.160Z,25.40
2019-02-26T13:06:23.037Z,24.90
2019-02-26T13:09:11.154Z,24.80
2019-02-26T13:12:02.483Z,24.60
2019-02-26T13:14:50.454Z,24.00
2019-02-26T13:17:39.554Z,23.70
2019-02-26T13:20:28.242Z,23.20
2019-02-26T13:23:20.109Z,22.90
2019-02-26T13:26:08.306Z,22.90
2019-02-26T13:29:00.351Z,22.80
2019-02-26T13:34:36.710Z,23.00
2019-02-26T13:37:27.896Z,23.10
2019-02-26T13:40:18.666Z,23.10
2019-02-26T13:43:09.461Z,23.30
2019-02-26T13:45:58.517Z,24.00
2019-02-26T13:48:47.493Z,24.80
2019-02-26T13:51:36.353Z,25.40
2019-02-26T13:54:25.706Z,25.30
2019-02-26T13:57:15.690Z,25.20
2019-02-26T14:00:06.632Z,25.10
2019-02-26T14:02:56.590Z,25.10
2019-02-26T14:05:48.659Z,25.20
2019-02-26T14:08:38.604Z,25.00
2019-02-26T14:11:27.601Z,24.70
2019-02-26T14:14:16.871Z,24.30
2019-02-26T14:17:05.700Z,24.40
2019-02-26T14:19:54.896Z,24.40
2019-02-26T14:22:43.083Z,24.40
2019-02-26T14:25:31.382Z,24.40
2019-02-26T14:28:19.923Z,24.70
2019-02-26T14:31:07.660Z,24.70
2019-02-26T14:33:56.390Z,24.80
2019-02-26T14:36:44.888Z,24.60
2019-02-26T14:39:33.672Z,24.70
2019-02-26T14:42:22.314Z,25.50
2019-02-26T14:45:12.691Z,25.80
2019-02-26T14:48:00.595Z,26.20
2019-02-26T14:50:49.097Z,26.20
2019-02-26T14:53:37.045Z,26.30
2019-02-26T14:56:26.070Z,26.50
2019-02-26T14:59:13.783Z,26.60
2019-02-26T15:02:02.642Z,26.90
2019-02-26T15:04:51.689Z,27.40
2019-02-26T15:07:40.130Z,27.50
2019-02-26T15:10:28.214Z,27.00
2019-02-26T15:13:16.046Z,26.40
2019-02-26T15:16:04.926Z,26.70
2019-02-26T15:18:52.906Z,27.10
2019-02-26T15:21:40.877Z,27.40
2019-02-26T15:24:29.069Z,26.80
2019-02-26T15:27:16.723Z,26.50
2019-02-26T15:30:05.631Z,25.80
2019-02-26T15:32:54.728Z,25.40
2019-02-26T15:35:43.500Z,25.10
2019-02-26T15:38:31.662Z,25.00
2019-02-26T15:41:20.842Z,25.40
2019-02-26T15:44:08.595Z,25.80
2019-02-26T15:46:56.790Z,25.80
2019-02-26T15:49:45.195Z,25.60
2019-02-26T15:52:40.003Z,25.20
2019-02-26T15:55:28.699Z,24.80
2019-02-26T15:58:17.152Z,24.70
2019-02-26T16:01:09.573Z,24.70
2019-02-26T16:03:58.080Z,24.40
2019-02-26T16:06:46.449Z,24.50
2019-02-26T16:09:35.771Z,24.50
2019-02-26T16:12:24.656Z,24.00
2019-02-26T16:15:12.850Z,23.70
2019-02-26T16:18:02.335Z,23.40
2019-02-26T16:20:50.290Z,23.00
2019-02-26T16:23:38.247Z,22.60
2019-02-26T16:26:26.578Z,22.30
2019-02-26T16:29:16.580Z,22.00
2019-02-26T16:32:05.640Z,21.60
2019-02-26T16:34:54.249Z,21.30
2019-02-26T16:37:42.789Z,21.00
2019-02-26T16:40:32.222Z,20.80
2019-02-26T16:43:20.848Z,20.60
2019-02-26T16:49:03.231Z,20.10
2019-02-26T16:51:52.480Z,19.90
2019-02-26T16:54:41.961Z,19.70
2019-02-26T16:57:30.491Z,19.50
2019-02-26T17:00:20.677Z,19.40
2019-02-26T17:03:08.715Z,19.20
2019-02-26T17:05:56.986Z,19.00
2019-02-26T17:08:47.243Z,18.90
2019-02-26T17:11:35.171Z,18.80
2019-02-26T17:14:23.610Z,18.60
2019-02-26T17:17:12.297Z,18.50
2019-02-26T17:20:00.542Z,18.30
2019-02-26T17:22:48.407Z,18.00
2019-02-26T17:25:36.761Z,18.00
2019-02-26T17:28:24.443Z,17.80
2019-02-26T17:31:12.834Z,17.70
2019-02-26T17:34:00.911Z,17.60
2019-02-26T17:36:49.138Z,17.60
2019-02-26T17:39:36.994Z,17.50
2019-02-26T17:42:32.418Z,17.40
2019-02-26T17:45:20.232Z,17.30
2019-02-26T17:48:09.017Z,17.10
2019-02-26T17:50:58.774Z,17.10
2019-02-26T17:53:46.570Z,17.00
2019-02-26T17:56:34.646Z,16.90
2019-02-26T17:59:23.113Z,16.70
2019-02-26T18:02:11.743Z,16.60
2019-02-26T18:05:00.773Z,16.50
2019-02-26T18:07:50.218Z,16.50
2019-02-26T18:10:38.768Z,16.50
2019-02-26T18:13:26.942Z,16.40
2019-02-26T18:16:15.047Z,16.30
2019-02-26T18:19:03.690Z,16.10
2019-02-26T18:21:51.835Z,15.90
2019-02-26T18:24:40.706Z,15.70
2019-02-26T18:27:31.104Z,15.60
2019-02-26T18:30:21.174Z,15.60
2019-02-26T18:33:09.963Z,15.50
2019-02-26T18:35:59.331Z,15.50
2019-02-26T18:38:49.226Z,15.40
2019-02-26T18:41:37.846Z,15.30
2019-02-26T18:44:26.475Z,15.00
2019-02-26T18:47:20.580Z,14.80
2019-02-26T18:50:10.195Z,14.80
2019-02-26T18:52:59.403Z,14.60
2019-02-26T18:55:47.327Z,14.50
2019-02-26T18:58:36.818Z,14.40
2019-02-26T19:01:28.482Z,14.30
2019-02-26T19:04:17.957Z,14.20
2019-02-26T19:07:08.121Z,14.10
2019-02-26T19:09:57.582Z,14.00
2019-02-26T19:12:49.889Z,14.00
2019-02-26T19:15:38.499Z,13.90
2019-02-26T19:18:27.192Z,13.90
2019-02-26T19:21:15.351Z,13.80
2019-02-26T19:24:04.652Z,13.70
2019-02-26T19:26:53.703Z,13.60
2019-02-26T19:29:42.706Z,13.50
2019-02-26T19:32:32.564Z,13.60
2019-02-26T19:35:21.642Z,13.40
2019-02-26T19:38:12.836Z,13.40
2019-02-26T19:41:04.633Z,13.30
2019-02-26T19:43:52.839Z,13.30
2019-02-26T19:46:40.510Z,13.20
2019-02-26T19:49:29.693Z,13.20
2019-02-26T19:52:17.784Z,13.00
2019-02-26T19:55:08.264Z,12.90
2019-02-26T19:57:56.961Z,12.90
2019-02-26T20:00:45.286Z,12.80
2019-02-26T20:03:39.854Z,12.70
2019-02-26T20:06:26.716Z,12.60
2019-02-26T20:09:13.994Z,12.70
2019-02-26T20:12:02.311Z,12.70
2019-02-26T20:14:51.009Z,12.70
2019-02-26T20:17:40.314Z,12.70
2019-02-26T20:20:28.368Z,12.70
2019-02-26T20:23:16.348Z,12.60
2019-02-26T20:26:03.945Z,12.50
2019-02-26T20:28:52.202Z,12.40
2019-02-26T20:31:40.071Z,12.40
2019-02-26T20:34:28.808Z,12.30
2019-02-26T20:37:16.728Z,12.30
2019-02-26T20:40:05.678Z,12.10
2019-02-26T20:42:54.101Z,12.00
2019-02-26T20:45:42.383Z,12.00
2019-02-26T20:48:30.719Z,12.00
2019-02-26T20:51:18.892Z,11.90
2019-02-26T20:54:06.861Z,11.90
2019-02-26T20:56:54.670Z,11.80
2019-02-26T20:59:43.945Z,11.90
2019-02-26T21:02:31.714Z,11.80
2019-02-26T21:05:22.098Z,11.70
2019-02-26T21:08:11.570Z,11.70
2019-02-26T21:10:59.646Z,11.60
2019-02-26T21:13:48.291Z,11.50
2019-02-26T21:16:37.612Z,11.60
2019-02-26T21:19:26.284Z,11.50
2019-02-26T21:22:16.640Z,11.50
2019-02-26T21:25:05.327Z,11.50
2019-02-26T21:27:53.814Z,11.50
2019-02-26T21:30:45.604Z,11.50
2019-02-26T21:33:32.341Z,11.50
2019-02-26T21:36:20.212Z,11.40
2019-02-26T21:39:11.130Z,11.60
2019-02-26T21:41:58.463Z,11.70
2019-02-26T21:44:46.866Z,11.80
2019-02-26T21:47:35.378Z,12.10
2019-02-26T21:50:23.979Z,11.80
2019-02-26T21:53:12.719Z,11.80
2019-02-26T21:56:02.098Z,11.80
2019-02-26T21:58:50.875Z,11.80
2019-02-26T22:01:41.274Z,11.60
2019-02-26T22:04:31.701Z,11.70
2019-02-26T22:07:19.865Z,11.70
2019-02-26T22:10:09.681Z,11.70
2019-02-26T22:12:57.927Z,11.60
2019-02-26T22:15:45.945Z,11.50
2019-02-26T22:18:34.371Z,11.40
2019-02-26T22:21:22.638Z,11.30
2019-02-26T22:24:10.595Z,11.30
2019-02-26T22:27:00.102Z,11.20
2019-02-26T22:29:48.660Z,11.10
2019-02-26T22:32:38.787Z,11.10
2019-02-26T22:35:27.078Z,11.10
2019-02-26T22:38:15.461Z,11.40
2019-02-26T22:41:07.534Z,11.40
2019-02-26T22:43:55.814Z,11.30
2019-02-26T22:46:43.793Z,11.20
2019-02-26T22:49:32.523Z,11.40
2019-02-26T22:52:22.579Z,11.50
2019-02-26T22:55:10.754Z,11.50
2019-02-26T22:58:02.513Z,11.40
2019-02-26T23:01:18.468Z,11.40
2019-02-26T23:04:06.784Z,11.40
2019-02-26T23:06:54.491Z,11.40
2019-02-26T23:09:42.902Z,11.40
2019-02-26T23:12:31.160Z,11.50
2019-02-26T23:15:20.126Z,11.60
2019-02-26T23:18:08.489Z,11.70
2019-02-26T23:20:56.738Z,11.60
2019-02-26T23:23:44.726Z,11.40
2019-02-26T23:26:33.322Z,11.40
2019-02-26T23:29:21.219Z,11.40
2019-02-26T23:32:10.034Z,11.30
2019-02-26T23:35:08.615Z,11.40
2019-02-26T23:37:56.494Z,11.50
2019-02-26T23:40:44.758Z,11.40
2019-02-26T23:43:32.790Z,11.40
2019-02-26T23:46:20.882Z,11.40
2019-02-26T23:49:13.809Z,11.30
2019-02-26T23:51:59.266Z,11.30
2019-02-26T23:54:47.293Z,11.40
2019-02-26T23:57:35.566Z,11.30
